sensor_id;sensor_type;location;lat;lon;timestamp;temperature;humidity
20200;DHT22;36284;37.236;-121.934;2022-07-29T00:00:50;27.90;99.90
20200;DHT22;36284;37.236;-121.934;2022-07-29T00:03:17;27.90;99.90
20200;DHT22;36284;37.236;-121.934;2022-07-29T00:05:44;28.00;99.90
20200;DHT22;36284;37.236;-121.934;2022-07-29T00:08:11;27.30;99.90
20200;DHT22;36284;37.236;-121.934;2022-07-29T00:10:38;27.60;99.90
20200;DHT22;36284;37.236;-121.934;2022-07-29T00:13:05;27.40;99.90
20200;DHT22;36284;37.236;-121.934;2022-07-29T00:15:32;27.00;99.90
20200;DHT22;36284;37.236;-121.934;2022-07-29T00:17:59;27.20;99.90
20200;DHT22;36284;37.236;-121.934;2022-07-29T00:20:26;27.20;99.90
20200;DHT22;36284;37.236;-121.934;2022-07-29T00:22:53;27.10;99.90
20200;DHT22;36284;37.236;-121.934;2022-07-29T00:25:20;26.60;99.90
20200;DHT22;36284;37.236;-121.934;2022-07-29T00:27:47;26.30;99.90
20200;DHT22;36284;37.236;-121.934;2022-07-29T00:30:14;25.80;99.90
20200;DHT22;36284;37.236;-121.934;2022-07-29T00:32:41;25.30;99.90
20200;DHT22;36284;37.236;-121.934;2022-07-29T00:35:08;25.90;99.90
20200;DHT22;36284;37.236;-121.934;2022-07-29T00:37:54;26.00;99.90
20200;DHT22;36284;37.236;-121.934;2022-07-29T00:40:20;25.90;99.90
20200;DHT22;36284;37.236;-121.934;2022-07-29T00:42:50;25.80;99.90
20200;DHT22;36284;37.236;-121.934;2022-07-29T00:45:18;25.80;99.90
20200;DHT22;36284;37.236;-121.934;2022-07-29T00:47:45;25.90;99.90
20200;DHT22;36284;37.236;-121.934;2022-07-29T00:50:13;26.20;99.90
20200;DHT22;36284;37.236;-121.934;2022-07-29T00:52:41;26.20;99.90
20200;DHT22;36284;37.236;-121.934;2022-07-29T00:55:11;25.90;99.90
20200;DHT22;36284;37.236;-121.934;2022-07-29T00:57:40;25.80;99.90
20200;DHT22;36284;37.236;-121.934;2022-07-29T01:00:15;25.50;99.90
20200;DHT22;36284;37.236;-121.934;2022-07-29T01:02:44;25.10;99.90
20200;DHT22;36284;37.236;-121.934;2022-07-29T01:05:12;24.90;99.90
20200;DHT22;36284;37.236;-121.934;2022-07-29T01:07:39;25.00;99.90
20200;DHT22;36284;37.236;-121.934;2022-07-29T01:10:08;25.20;99.90
20200;DHT22;36284;37.236;-121.934;2022-07-29T01:12:37;24.90;99.90
20200;DHT22;36284;37.236;-121.934;2022-07-29T01:15:06;24.80;99.90
20200;DHT22;36284;37.236;-121.934;2022-07-29T01:18:01;24.60;99.90
20200;DHT22;36284;37.236;-121.934;2022-07-29T01:20:39;24.70;99.90
20200;DHT22;36284;37.236;-121.934;2022-07-29T01:26:31;24.40;99.90
20200;DHT22;36284;37.236;-121.934;2022-07-29T01:32:07;23.70;99.90
20200;DHT22;36284;37.236;-121.934;2022-07-29T01:37:41;23.40;99.90
20200;DHT22;36284;37.236;-121.934;2022-07-29T01:40:35;23.50;99.90
20200;DHT22;36284;37.236;-121.934;2022-07-29T01:43:10;23.70;99.90
20200;DHT22;36284;37.236;-121.934;2022-07-29T01:45:41;23.70;99.90
20200;DHT22;36284;37.236;-121.934;2022-07-29T01:48:15;23.80;99.90
20200;DHT22;36284;37.236;-121.934;2022-07-29T01:50:52;23.70;99.90
20200;DHT22;36284;37.236;-121.934;2022-07-29T01:53:35;23.90;99.90
20200;DHT22;36284;37.236;-121.934;2022-07-29T01:56:03;23.50;99.90
20200;DHT22;36284;37.236;-121.934;2022-07-29T01:58:32;23.60;99.90
20200;DHT22;36284;37.236;-121.934;2022-07-29T02:01:00;23.30;99.90
20200;DHT22;36284;37.236;-121.934;2022-07-29T02:03:28;23.10;99.90
20200;DHT22;36284;37.236;-121.934;2022-07-29T02:05:57;23.40;99.90
20200;DHT22;36284;37.236;-121.934;2022-07-29T02:08:25;23.30;99.90
20200;DHT22;36284;37.236;-121.934;2022-07-29T02:10:53;23.00;99.90
20200;DHT22;36284;37.236;-121.934;2022-07-29T02:13:23;22.80;99.90
20200;DHT22;36284;37.236;-121.934;2022-07-29T02:15:52;22.70;99.90
20200;DHT22;36284;37.236;-121.934;2022-07-29T02:18:22;22.90;99.90
20200;DHT22;36284;37.236;-121.934;2022-07-29T02:20:52;23.00;99.90
20200;DHT22;36284;37.236;-121.934;2022-07-29T02:23:21;22.40;99.90
20200;DHT22;36284;37.236;-121.934;2022-07-29T02:25:53;22.30;99.90
20200;DHT22;36284;37.236;-121.934;2022-07-29T02:28:23;22.50;99.90
20200;DHT22;36284;37.236;-121.934;2022-07-29T02:30:52;22.20;99.90
20200;DHT22;36284;37.236;-121.934;2022-07-29T02:33:20;21.70;99.90
20200;DHT22;36284;37.236;-121.934;2022-07-29T02:35:48;21.60;99.90
20200;DHT22;36284;37.236;-121.934;2022-07-29T02:38:18;21.70;99.90
20200;DHT22;36284;37.236;-121.934;2022-07-29T02:41:08;21.60;99.90
20200;DHT22;36284;37.236;-121.934;2022-07-29T02:43:39;21.40;99.90
20200;DHT22;36284;37.236;-121.934;2022-07-29T02:46:11;21.40;99.90
20200;DHT22;36284;37.236;-121.934;2022-07-29T02:48:48;21.20;99.90
20200;DHT22;36284;37.236;-121.934;2022-07-29T02:51:25;20.70;99.90
20200;DHT22;36284;37.236;-121.934;2022-07-29T02:53:56;20.80;99.90
20200;DHT22;36284;37.236;-121.934;2022-07-29T02:56:28;20.70;99.90
20200;DHT22;36284;37.236;-121.934;2022-07-29T02:59:07;20.80;99.90
20200;DHT22;36284;37.236;-121.934;2022-07-29T03:01:36;20.70;99.90
20200;DHT22;36284;37.236;-121.934;2022-07-29T03:04:06;20.60;99.90
20200;DHT22;36284;37.236;-121.934;2022-07-29T03:06:35;20.30;99.90
20200;DHT22;36284;37.236;-121.934;2022-07-29T03:09:04;20.40;99.90
20200;DHT22;36284;37.236;-121.934;2022-07-29T03:11:34;20.50;99.90
20200;DHT22;36284;37.236;-121.934;2022-07-29T03:14:01;20.50;99.90
20200;DHT22;36284;37.236;-121.934;2022-07-29T03:16:29;20.30;99.90
20200;DHT22;36284;37.236;-121.934;2022-07-29T03:18:56;20.00;99.90
20200;DHT22;36284;37.236;-121.934;2022-07-29T03:21:23;19.90;99.90
20200;DHT22;36284;37.236;-121.934;2022-07-29T03:23:50;19.90;99.90
20200;DHT22;36284;37.236;-121.934;2022-07-29T03:26:17;19.80;99.90
20200;DHT22;36284;37.236;-121.934;2022-07-29T03:28:45;19.70;99.90
20200;DHT22;36284;37.236;-121.934;2022-07-29T03:31:12;19.70;99.90
20200;DHT22;36284;37.236;-121.934;2022-07-29T03:33:39;19.70;99.90
20200;DHT22;36284;37.236;-121.934;2022-07-29T03:36:06;19.60;99.90
20200;DHT22;36284;37.236;-121.934;2022-07-29T03:38:34;19.60;99.90
20200;DHT22;36284;37.236;-121.934;2022-07-29T03:41:05;19.60;99.90
20200;DHT22;36284;37.236;-121.934;2022-07-29T03:43:35;19.40;99.90
20200;DHT22;36284;37.236;-121.934;2022-07-29T03:46:08;19.20;99.90
20200;DHT22;36284;37.236;-121.934;2022-07-29T03:48:39;19.30;99.90
20200;DHT22;36284;37.236;-121.934;2022-07-29T03:51:09;19.20;99.90
20200;DHT22;36284;37.236;-121.934;2022-07-29T03:53:36;19.20;99.90
20200;DHT22;36284;37.236;-121.934;2022-07-29T03:56:03;19.20;99.90
20200;DHT22;36284;37.236;-121.934;2022-07-29T03:58:31;19.00;99.90
20200;DHT22;36284;37.236;-121.934;2022-07-29T04:00:59;19.00;99.90
20200;DHT22;36284;37.236;-121.934;2022-07-29T04:03:26;19.00;99.90
20200;DHT22;36284;37.236;-121.934;2022-07-29T04:06:04;19.00;99.90
20200;DHT22;36284;37.236;-121.934;2022-07-29T04:08:34;18.80;99.90
20200;DHT22;36284;37.236;-121.934;2022-07-29T04:11:02;18.70;99.90
20200;DHT22;36284;37.236;-121.934;2022-07-29T04:13:31;18.70;99.90
20200;DHT22;36284;37.236;-121.934;2022-07-29T04:15:58;18.70;99.90
20200;DHT22;36284;37.236;-121.934;2022-07-29T04:18:26;18.70;99.90
20200;DHT22;36284;37.236;-121.934;2022-07-29T04:20:53;18.60;99.90
20200;DHT22;36284;37.236;-121.934;2022-07-29T04:23:20;18.60;99.90
20200;DHT22;36284;37.236;-121.934;2022-07-29T04:25:47;18.50;99.90
20200;DHT22;36284;37.236;-121.934;2022-07-29T04:28:14;18.50;99.90
20200;DHT22;36284;37.236;-121.934;2022-07-29T04:30:41;18.40;99.90
20200;DHT22;36284;37.236;-121.934;2022-07-29T04:33:08;18.40;99.90
20200;DHT22;36284;37.236;-121.934;2022-07-29T04:35:38;18.30;99.90
20200;DHT22;36284;37.236;-121.934;2022-07-29T04:38:06;18.30;99.90
20200;DHT22;36284;37.236;-121.934;2022-07-29T04:40:33;18.20;99.90
20200;DHT22;36284;37.236;-121.934;2022-07-29T04:43:01;18.30;99.90
20200;DHT22;36284;37.236;-121.934;2022-07-29T04:45:28;18.10;99.90
20200;DHT22;36284;37.236;-121.934;2022-07-29T04:47:55;18.10;99.90
20200;DHT22;36284;37.236;-121.934;2022-07-29T04:50:23;18.10;99.90
20200;DHT22;36284;37.236;-121.934;2022-07-29T04:52:50;18.00;99.90
20200;DHT22;36284;37.236;-121.934;2022-07-29T04:55:17;18.00;99.90
20200;DHT22;36284;37.236;-121.934;2022-07-29T04:57:44;17.90;99.90
20200;DHT22;36284;37.236;-121.934;2022-07-29T05:00:11;17.80;99.90
20200;DHT22;36284;37.236;-121.934;2022-07-29T05:02:38;17.90;99.90
20200;DHT22;36284;37.236;-121.934;2022-07-29T05:05:05;17.80;99.90
20200;DHT22;36284;37.236;-121.934;2022-07-29T05:07:33;17.80;99.90
20200;DHT22;36284;37.236;-121.934;2022-07-29T05:10:00;17.60;99.90
20200;DHT22;36284;37.236;-121.934;2022-07-29T05:12:27;17.60;99.90
20200;DHT22;36284;37.236;-121.934;2022-07-29T05:14:54;17.60;99.90
20200;DHT22;36284;37.236;-121.934;2022-07-29T05:17:21;17.60;99.90
20200;DHT22;36284;37.236;-121.934;2022-07-29T05:19:48;17.60;99.90
20200;DHT22;36284;37.236;-121.934;2022-07-29T05:22:19;17.60;99.90
20200;DHT22;36284;37.236;-121.934;2022-07-29T05:24:46;17.60;99.90
20200;DHT22;36284;37.236;-121.934;2022-07-29T05:27:13;17.60;99.90
20200;DHT22;36284;37.236;-121.934;2022-07-29T05:29:40;17.60;99.90
20200;DHT22;36284;37.236;-121.934;2022-07-29T05:32:07;17.60;99.90
20200;DHT22;36284;37.236;-121.934;2022-07-29T05:34:34;17.60;99.90
20200;DHT22;36284;37.236;-121.934;2022-07-29T05:37:01;17.60;99.90
20200;DHT22;36284;37.236;-121.934;2022-07-29T05:39:28;17.60;99.90
20200;DHT22;36284;37.236;-121.934;2022-07-29T05:41:55;17.60;99.90
20200;DHT22;36284;37.236;-121.934;2022-07-29T05:44:22;17.70;99.90
20200;DHT22;36284;37.236;-121.934;2022-07-29T05:46:49;17.80;99.90
20200;DHT22;36284;37.236;-121.934;2022-07-29T05:49:16;17.70;99.90
20200;DHT22;36284;37.236;-121.934;2022-07-29T05:51:43;17.60;99.90
20200;DHT22;36284;37.236;-121.934;2022-07-29T05:54:10;17.50;99.90
20200;DHT22;36284;37.236;-121.934;2022-07-29T05:56:37;17.50;99.90
20200;DHT22;36284;37.236;-121.934;2022-07-29T05:59:04;17.40;99.90
20200;DHT22;36284;37.236;-121.934;2022-07-29T06:01:31;17.50;99.90
20200;DHT22;36284;37.236;-121.934;2022-07-29T06:03:58;17.60;99.90
20200;DHT22;36284;37.236;-121.934;2022-07-29T06:06:25;17.40;99.90
20200;DHT22;36284;37.236;-121.934;2022-07-29T06:08:52;17.40;99.90
20200;DHT22;36284;37.236;-121.934;2022-07-29T06:11:19;17.40;99.90
20200;DHT22;36284;37.236;-121.934;2022-07-29T06:13:46;17.40;99.90
20200;DHT22;36284;37.236;-121.934;2022-07-29T06:16:13;17.30;99.90
20200;DHT22;36284;37.236;-121.934;2022-07-29T06:18:40;17.30;99.90
20200;DHT22;36284;37.236;-121.934;2022-07-29T06:21:08;17.30;99.90
20200;DHT22;36284;37.236;-121.934;2022-07-29T06:23:37;17.30;99.90
20200;DHT22;36284;37.236;-121.934;2022-07-29T06:26:04;17.20;99.90
20200;DHT22;36284;37.236;-121.934;2022-07-29T06:28:32;17.20;99.90
20200;DHT22;36284;37.236;-121.934;2022-07-29T06:30:59;17.30;99.90
20200;DHT22;36284;37.236;-121.934;2022-07-29T06:33:26;17.30;99.90
20200;DHT22;36284;37.236;-121.934;2022-07-29T06:35:53;17.40;99.90
20200;DHT22;36284;37.236;-121.934;2022-07-29T06:38:20;17.40;99.90
20200;DHT22;36284;37.236;-121.934;2022-07-29T06:40:48;17.50;99.90
20200;DHT22;36284;37.236;-121.934;2022-07-29T06:43:37;17.60;99.90
20200;DHT22;36284;37.236;-121.934;2022-07-29T06:46:15;17.60;99.90
20200;DHT22;36284;37.236;-121.934;2022-07-29T06:48:44;17.60;99.90
20200;DHT22;36284;37.236;-121.934;2022-07-29T06:51:12;17.60;99.90
20200;DHT22;36284;37.236;-121.934;2022-07-29T06:53:39;17.70;99.90
20200;DHT22;36284;37.236;-121.934;2022-07-29T06:56:07;17.60;99.90
20200;DHT22;36284;37.236;-121.934;2022-07-29T06:58:39;17.40;99.90
20200;DHT22;36284;37.236;-121.934;2022-07-29T07:01:06;17.40;99.90
20200;DHT22;36284;37.236;-121.934;2022-07-29T07:03:33;17.40;99.90
20200;DHT22;36284;37.236;-121.934;2022-07-29T07:06:00;17.40;99.90
20200;DHT22;36284;37.236;-121.934;2022-07-29T07:08:27;17.50;99.90
20200;DHT22;36284;37.236;-121.934;2022-07-29T07:10:54;17.50;99.90
20200;DHT22;36284;37.236;-121.934;2022-07-29T07:13:21;17.50;99.90
20200;DHT22;36284;37.236;-121.934;2022-07-29T07:15:48;17.50;99.90
20200;DHT22;36284;37.236;-121.934;2022-07-29T07:18:15;17.50;99.90
20200;DHT22;36284;37.236;-121.934;2022-07-29T07:20:43;17.30;99.90
20200;DHT22;36284;37.236;-121.934;2022-07-29T07:23:10;17.30;99.90
20200;DHT22;36284;37.236;-121.934;2022-07-29T07:25:37;17.30;99.90
20200;DHT22;36284;37.236;-121.934;2022-07-29T07:28:04;17.20;99.90
20200;DHT22;36284;37.236;-121.934;2022-07-29T07:30:31;17.20;99.90
20200;DHT22;36284;37.236;-121.934;2022-07-29T07:32:59;17.20;99.90
20200;DHT22;36284;37.236;-121.934;2022-07-29T07:35:26;17.20;99.90
20200;DHT22;36284;37.236;-121.934;2022-07-29T07:37:55;17.20;99.90
20200;DHT22;36284;37.236;-121.934;2022-07-29T07:40:22;17.10;99.90
20200;DHT22;36284;37.236;-121.934;2022-07-29T07:42:49;17.20;99.90
20200;DHT22;36284;37.236;-121.934;2022-07-29T07:45:16;17.20;99.90
20200;DHT22;36284;37.236;-121.934;2022-07-29T07:47:43;17.20;99.90
20200;DHT22;36284;37.236;-121.934;2022-07-29T07:50:12;17.20;99.90
20200;DHT22;36284;37.236;-121.934;2022-07-29T07:52:50;17.30;99.90
20200;DHT22;36284;37.236;-121.934;2022-07-29T07:55:18;17.30;99.90
20200;DHT22;36284;37.236;-121.934;2022-07-29T07:57:46;17.20;99.90
20200;DHT22;36284;37.236;-121.934;2022-07-29T08:00:14;17.30;99.90
20200;DHT22;36284;37.236;-121.934;2022-07-29T08:02:42;17.30;99.90
20200;DHT22;36284;37.236;-121.934;2022-07-29T08:05:09;17.30;99.90
20200;DHT22;36284;37.236;-121.934;2022-07-29T08:07:37;17.20;99.90
20200;DHT22;36284;37.236;-121.934;2022-07-29T08:10:05;17.20;99.90
20200;DHT22;36284;37.236;-121.934;2022-07-29T08:12:32;17.20;99.90
20200;DHT22;36284;37.236;-121.934;2022-07-29T08:14:59;17.10;99.90
20200;DHT22;36284;37.236;-121.934;2022-07-29T08:17:26;17.20;99.90
20200;DHT22;36284;37.236;-121.934;2022-07-29T08:19:55;17.20;99.90
20200;DHT22;36284;37.236;-121.934;2022-07-29T08:22:22;17.20;99.90
20200;DHT22;36284;37.236;-121.934;2022-07-29T08:24:49;17.10;99.90
20200;DHT22;36284;37.236;-121.934;2022-07-29T08:27:20;16.90;99.90
20200;DHT22;36284;37.236;-121.934;2022-07-29T08:29:47;16.90;99.90
20200;DHT22;36284;37.236;-121.934;2022-07-29T08:32:14;16.90;99.90
20200;DHT22;36284;37.236;-121.934;2022-07-29T08:34:41;16.90;99.90
20200;DHT22;36284;37.236;-121.934;2022-07-29T08:37:08;16.90;99.90
20200;DHT22;36284;37.236;-121.934;2022-07-29T08:39:35;16.90;99.90
20200;DHT22;36284;37.236;-121.934;2022-07-29T08:42:02;16.90;99.90
20200;DHT22;36284;37.236;-121.934;2022-07-29T08:44:29;16.90;99.90
20200;DHT22;36284;37.236;-121.934;2022-07-29T08:46:58;17.00;99.90
20200;DHT22;36284;37.236;-121.934;2022-07-29T08:49:24;17.10;99.90
20200;DHT22;36284;37.236;-121.934;2022-07-29T08:51:51;17.00;99.90
20200;DHT22;36284;37.236;-121.934;2022-07-29T08:54:20;17.00;99.90
20200;DHT22;36284;37.236;-121.934;2022-07-29T08:56:50;17.00;99.90
20200;DHT22;36284;37.236;-121.934;2022-07-29T08:59:19;17.10;99.90
20200;DHT22;36284;37.236;-121.934;2022-07-29T09:01:48;17.10;99.90
20200;DHT22;36284;37.236;-121.934;2022-07-29T09:04:17;17.10;99.90
20200;DHT22;36284;37.236;-121.934;2022-07-29T09:06:48;17.10;99.90
20200;DHT22;36284;37.236;-121.934;2022-07-29T09:09:16;17.10;99.90
20200;DHT22;36284;37.236;-121.934;2022-07-29T09:11:43;17.00;99.90
20200;DHT22;36284;37.236;-121.934;2022-07-29T09:14:14;17.00;99.90
20200;DHT22;36284;37.236;-121.934;2022-07-29T09:19:29;17.10;99.90
20200;DHT22;36284;37.236;-121.934;2022-07-29T09:21:58;17.00;99.90
20200;DHT22;36284;37.236;-121.934;2022-07-29T09:27:19;16.90;99.90
20200;DHT22;36284;37.236;-121.934;2022-07-29T09:32:24;16.80;99.90
20200;DHT22;36284;37.236;-121.934;2022-07-29T09:35:16;16.90;99.90
20200;DHT22;36284;37.236;-121.934;2022-07-29T09:37:44;16.90;99.90
20200;DHT22;36284;37.236;-121.934;2022-07-29T09:42:42;17.00;99.90
20200;DHT22;36284;37.236;-121.934;2022-07-29T09:45:09;17.00;99.90
20200;DHT22;36284;37.236;-121.934;2022-07-29T09:47:47;17.00;99.90
20200;DHT22;36284;37.236;-121.934;2022-07-29T09:50:17;17.00;99.90
20200;DHT22;36284;37.236;-121.934;2022-07-29T09:52:51;17.00;99.90
20200;DHT22;36284;37.236;-121.934;2022-07-29T09:55:19;16.90;99.90
20200;DHT22;36284;37.236;-121.934;2022-07-29T09:57:46;16.90;99.90
20200;DHT22;36284;37.236;-121.934;2022-07-29T10:00:19;16.80;99.90
20200;DHT22;36284;37.236;-121.934;2022-07-29T10:02:47;16.80;99.90
20200;DHT22;36284;37.236;-121.934;2022-07-29T10:05:23;16.80;99.90
20200;DHT22;36284;37.236;-121.934;2022-07-29T10:07:54;16.80;99.90
20200;DHT22;36284;37.236;-121.934;2022-07-29T10:10:32;16.80;99.90
20200;DHT22;36284;37.236;-121.934;2022-07-29T10:13:10;16.80;99.90
20200;DHT22;36284;37.236;-121.934;2022-07-29T10:15:40;16.80;99.90
20200;DHT22;36284;37.236;-121.934;2022-07-29T10:18:08;16.90;99.90
20200;DHT22;36284;37.236;-121.934;2022-07-29T10:20:36;16.90;99.90
20200;DHT22;36284;37.236;-121.934;2022-07-29T10:23:04;16.90;99.90
20200;DHT22;36284;37.236;-121.934;2022-07-29T10:25:31;16.90;99.90
20200;DHT22;36284;37.236;-121.934;2022-07-29T10:27:58;16.70;99.90
20200;DHT22;36284;37.236;-121.934;2022-07-29T10:30:26;16.70;99.90
20200;DHT22;36284;37.236;-121.934;2022-07-29T10:33:21;16.80;99.90
20200;DHT22;36284;37.236;-121.934;2022-07-29T10:36:05;16.80;99.90
20200;DHT22;36284;37.236;-121.934;2022-07-29T10:41:36;16.70;99.90
20200;DHT22;36284;37.236;-121.934;2022-07-29T10:44:17;16.70;99.90
20200;DHT22;36284;37.236;-121.934;2022-07-29T10:46:45;16.70;99.90
20200;DHT22;36284;37.236;-121.934;2022-07-29T10:49:16;16.70;99.90
20200;DHT22;36284;37.236;-121.934;2022-07-29T10:52:04;16.70;99.90
20200;DHT22;36284;37.236;-121.934;2022-07-29T10:57:26;16.80;99.90
20200;DHT22;36284;37.236;-121.934;2022-07-29T11:05:11;16.60;99.90
20200;DHT22;36284;37.236;-121.934;2022-07-29T11:07:40;16.60;99.90
20200;DHT22;36284;37.236;-121.934;2022-07-29T11:10:26;16.70;99.90
20200;DHT22;36284;37.236;-121.934;2022-07-29T11:12:53;16.70;99.90
20200;DHT22;36284;37.236;-121.934;2022-07-29T11:15:22;16.70;99.90
20200;DHT22;36284;37.236;-121.934;2022-07-29T11:20:47;16.70;99.90
20200;DHT22;36284;37.236;-121.934;2022-07-29T11:23:28;16.70;99.90
20200;DHT22;36284;37.236;-121.934;2022-07-29T11:26:20;16.70;99.90
20200;DHT22;36284;37.236;-121.934;2022-07-29T11:31:38;16.70;99.90
20200;DHT22;36284;37.236;-121.934;2022-07-29T11:45:15;16.80;99.90
20200;DHT22;36284;37.236;-121.934;2022-07-29T11:50:15;16.70;99.90
20200;DHT22;36284;37.236;-121.934;2022-07-29T11:52:44;16.70;99.90
20200;DHT22;36284;37.236;-121.934;2022-07-29T11:55:19;16.70;99.90
20200;DHT22;36284;37.236;-121.934;2022-07-29T11:57:53;16.70;99.90
20200;DHT22;36284;37.236;-121.934;2022-07-29T12:02:48;16.80;99.90
20200;DHT22;36284;37.236;-121.934;2022-07-29T12:05:16;16.70;99.90
20200;DHT22;36284;37.236;-121.934;2022-07-29T12:07:43;16.60;99.90
20200;DHT22;36284;37.236;-121.934;2022-07-29T12:10:10;16.70;99.90
20200;DHT22;36284;37.236;-121.934;2022-07-29T12:12:37;16.70;99.90
20200;DHT22;36284;37.236;-121.934;2022-07-29T12:15:12;16.70;99.90
20200;DHT22;36284;37.236;-121.934;2022-07-29T12:17:39;16.70;99.90
20200;DHT22;36284;37.236;-121.934;2022-07-29T12:20:07;16.80;99.90
20200;DHT22;36284;37.236;-121.934;2022-07-29T12:22:36;16.90;99.90
20200;DHT22;36284;37.236;-121.934;2022-07-29T12:25:05;16.80;99.90
20200;DHT22;36284;37.236;-121.934;2022-07-29T12:27:33;16.80;99.90
20200;DHT22;36284;37.236;-121.934;2022-07-29T12:30:05;16.80;99.90
20200;DHT22;36284;37.236;-121.934;2022-07-29T12:32:34;16.80;99.90
20200;DHT22;36284;37.236;-121.934;2022-07-29T12:35:11;16.70;99.90
20200;DHT22;36284;37.236;-121.934;2022-07-29T12:37:41;16.70;99.90
20200;DHT22;36284;37.236;-121.934;2022-07-29T12:40:10;16.80;99.90
20200;DHT22;36284;37.236;-121.934;2022-07-29T12:42:37;16.70;99.90
20200;DHT22;36284;37.236;-121.934;2022-07-29T12:45:05;16.70;99.90
20200;DHT22;36284;37.236;-121.934;2022-07-29T12:47:33;16.70;99.90
20200;DHT22;36284;37.236;-121.934;2022-07-29T12:50:10;16.70;99.90
20200;DHT22;36284;37.236;-121.934;2022-07-29T12:52:38;16.70;99.90
20200;DHT22;36284;37.236;-121.934;2022-07-29T12:55:05;16.80;99.90
20200;DHT22;36284;37.236;-121.934;2022-07-29T12:57:45;16.70;99.90
20200;DHT22;36284;37.236;-121.934;2022-07-29T13:00:14;16.70;99.90
20200;DHT22;36284;37.236;-121.934;2022-07-29T13:02:42;16.80;99.90
20200;DHT22;36284;37.236;-121.934;2022-07-29T13:05:10;16.70;99.90
20200;DHT22;36284;37.236;-121.934;2022-07-29T13:07:39;16.70;99.90
20200;DHT22;36284;37.236;-121.934;2022-07-29T13:10:15;16.80;99.90
20200;DHT22;36284;37.236;-121.934;2022-07-29T13:13:21;16.80;99.90
20200;DHT22;36284;37.236;-121.934;2022-07-29T13:16:06;16.80;99.90
20200;DHT22;36284;37.236;-121.934;2022-07-29T13:18:35;16.80;99.90
20200;DHT22;36284;37.236;-121.934;2022-07-29T13:21:15;16.80;99.90
20200;DHT22;36284;37.236;-121.934;2022-07-29T13:23:43;16.80;99.90
20200;DHT22;36284;37.236;-121.934;2022-07-29T13:26:11;16.80;99.90
20200;DHT22;36284;37.236;-121.934;2022-07-29T13:28:38;16.80;99.90
20200;DHT22;36284;37.236;-121.934;2022-07-29T13:31:05;16.90;99.90
20200;DHT22;36284;37.236;-121.934;2022-07-29T13:33:32;16.90;99.90
20200;DHT22;36284;37.236;-121.934;2022-07-29T13:35:59;16.90;99.90
20200;DHT22;36284;37.236;-121.934;2022-07-29T13:38:25;16.90;99.90
20200;DHT22;36284;37.236;-121.934;2022-07-29T13:40:53;16.90;99.90
20200;DHT22;36284;37.236;-121.934;2022-07-29T13:43:20;16.90;99.90
20200;DHT22;36284;37.236;-121.934;2022-07-29T13:45:47;16.90;99.90
20200;DHT22;36284;37.236;-121.934;2022-07-29T13:48:14;16.90;99.90
20200;DHT22;36284;37.236;-121.934;2022-07-29T13:50:41;16.80;99.90
20200;DHT22;36284;37.236;-121.934;2022-07-29T13:53:08;17.00;99.90
20200;DHT22;36284;37.236;-121.934;2022-07-29T13:55:34;17.10;99.90
20200;DHT22;36284;37.236;-121.934;2022-07-29T13:58:01;17.20;99.90
20200;DHT22;36284;37.236;-121.934;2022-07-29T14:00:28;17.20;99.90
20200;DHT22;36284;37.236;-121.934;2022-07-29T14:02:55;17.20;99.90
20200;DHT22;36284;37.236;-121.934;2022-07-29T14:05:23;17.40;99.90
20200;DHT22;36284;37.236;-121.934;2022-07-29T14:07:50;17.40;99.90
20200;DHT22;36284;37.236;-121.934;2022-07-29T14:10:16;17.60;99.90
20200;DHT22;36284;37.236;-121.934;2022-07-29T14:12:43;17.50;99.90
20200;DHT22;36284;37.236;-121.934;2022-07-29T14:15:10;17.40;99.90
20200;DHT22;36284;37.236;-121.934;2022-07-29T14:17:37;17.40;99.90
20200;DHT22;36284;37.236;-121.934;2022-07-29T14:20:04;17.50;99.90
20200;DHT22;36284;37.236;-121.934;2022-07-29T14:22:31;17.50;99.90
20200;DHT22;36284;37.236;-121.934;2022-07-29T14:24:59;17.60;99.90
20200;DHT22;36284;37.236;-121.934;2022-07-29T14:27:26;17.90;99.90
20200;DHT22;36284;37.236;-121.934;2022-07-29T14:29:53;18.00;99.90
20200;DHT22;36284;37.236;-121.934;2022-07-29T14:32:20;18.10;99.90
20200;DHT22;36284;37.236;-121.934;2022-07-29T14:34:47;18.10;99.90
20200;DHT22;36284;37.236;-121.934;2022-07-29T14:37:14;18.20;99.90
20200;DHT22;36284;37.236;-121.934;2022-07-29T14:39:41;18.20;99.90
20200;DHT22;36284;37.236;-121.934;2022-07-29T14:42:08;18.20;99.90
20200;DHT22;36284;37.236;-121.934;2022-07-29T14:44:34;18.30;99.90
20200;DHT22;36284;37.236;-121.934;2022-07-29T14:47:01;18.60;99.90
20200;DHT22;36284;37.236;-121.934;2022-07-29T14:49:28;18.90;99.90
20200;DHT22;36284;37.236;-121.934;2022-07-29T14:51:55;18.80;99.90
20200;DHT22;36284;37.236;-121.934;2022-07-29T14:54:22;18.70;99.90
20200;DHT22;36284;37.236;-121.934;2022-07-29T14:56:49;19.00;99.90
20200;DHT22;36284;37.236;-121.934;2022-07-29T14:59:17;19.20;99.90
20200;DHT22;36284;37.236;-121.934;2022-07-29T15:01:44;19.60;99.90
20200;DHT22;36284;37.236;-121.934;2022-07-29T15:04:11;19.70;99.90
20200;DHT22;36284;37.236;-121.934;2022-07-29T15:06:38;20.10;99.90
20200;DHT22;36284;37.236;-121.934;2022-07-29T15:09:05;21.10;99.90
20200;DHT22;36284;37.236;-121.934;2022-07-29T15:11:32;21.60;99.90
20200;DHT22;36284;37.236;-121.934;2022-07-29T15:13:59;21.90;99.90
20200;DHT22;36284;37.236;-121.934;2022-07-29T15:16:25;21.60;99.90
20200;DHT22;36284;37.236;-121.934;2022-07-29T15:18:52;21.20;99.90
20200;DHT22;36284;37.236;-121.934;2022-07-29T15:21:19;20.60;99.90
20200;DHT22;36284;37.236;-121.934;2022-07-29T15:23:46;20.50;99.90
20200;DHT22;36284;37.236;-121.934;2022-07-29T15:26:13;20.60;99.90
20200;DHT22;36284;37.236;-121.934;2022-07-29T15:28:40;20.30;99.90
20200;DHT22;36284;37.236;-121.934;2022-07-29T15:31:07;20.40;99.90
20200;DHT22;36284;37.236;-121.934;2022-07-29T15:33:35;21.20;99.90
20200;DHT22;36284;37.236;-121.934;2022-07-29T15:36:02;21.30;99.90
20200;DHT22;36284;37.236;-121.934;2022-07-29T15:38:31;21.30;99.90
20200;DHT22;36284;37.236;-121.934;2022-07-29T15:40:58;21.70;99.90
20200;DHT22;36284;37.236;-121.934;2022-07-29T15:43:25;21.60;99.90
20200;DHT22;36284;37.236;-121.934;2022-07-29T15:45:52;21.50;99.90
20200;DHT22;36284;37.236;-121.934;2022-07-29T15:48:40;21.40;99.90
20200;DHT22;36284;37.236;-121.934;2022-07-29T15:51:07;21.70;99.90
20200;DHT22;36284;37.236;-121.934;2022-07-29T15:53:34;21.70;99.90